Time;durP1;ratioP1;P1;durP2;ratioP2;P2;SDS_P1;SDS_P2;PMS_P1;PMS_P2;Temp;Humidity;BMP_temperature;BMP_pressure;BME280_temperature;BME280_humidity;BME280_pressure;Samples;Min_cycle;Max_cycle;Signal;HPM_P1;HPM_P2
2022/02/11 00:01:03;;;;;;;0.00;0.00;;;7.60;99.90;;;;;;5011733;28;20095;-71
2022/02/11 00:08:59;;;;;;;0.20;0.20;;;7.60;99.90;;;;;;5012252;28;20080;-78
2022/02/11 00:11:34;;;;;;;0.10;0.10;;;7.60;99.90;;;;;;5012329;28;20026;-79
2022/02/11 00:14:00;;;;;;;0.43;0.43;;;7.60;99.90;;;;;;5012373;28;20026;-78
2022/02/11 00:16:26;;;;;;;0.03;0.03;;;7.60;99.90;;;;;;5010907;28;20057;-71
2022/02/11 00:18:52;;;;;;;0.52;0.52;;;7.60;99.90;;;;;;5011679;28;20034;-72
2022/02/11 00:21:21;;;;;;;0.00;0.00;;;7.60;99.90;;;;;;5012428;28;20444;-71
2022/02/11 00:23:46;;;;;;;0.00;0.00;;;7.50;99.90;;;;;;5012361;28;20020;-71
2022/02/11 00:26:12;;;;;;;0.00;0.00;;;7.50;99.90;;;;;;5012349;28;20485;-71
2022/02/11 00:33:52;;;;;;;0.10;0.10;;;7.50;99.90;;;;;;5012305;28;20026;-72
2022/02/11 00:36:21;;;;;;;0.22;0.08;;;7.50;99.90;;;;;;5014597;28;20040;-79
2022/02/11 01:02:31;;;;;;;0.03;0.03;;;7.30;99.90;;;;;;5035200;28;20072;-79
2022/02/11 01:04:57;;;;;;;0.00;0.00;;;7.30;99.90;;;;;;5035253;28;20052;-79
2022/02/11 01:07:23;;;;;;;0.00;0.00;;;7.30;99.90;;;;;;5034724;28;20057;-78
2022/02/11 01:09:49;;;;;;;0.95;0.50;;;7.20;99.90;;;;;;5041603;28;20021;-71
2022/02/11 01:12:15;;;;;;;0.00;0.00;;;7.20;99.90;;;;;;5034398;28;20091;-71
2022/02/11 01:14:51;;;;;;;0.00;0.00;;;7.20;99.90;;;;;;5035454;28;20037;-71
2022/02/11 01:22:47;;;;;;;0.00;0.00;;;7.10;99.90;;;;;;5034817;28;20036;-79
2022/02/11 01:28:06;;;;;;;0.00;0.00;;;7.00;99.90;;;;;;5035228;28;20025;-72
2022/02/11 01:36:04;;;;;;;0.00;0.00;;;7.00;99.90;;;;;;5034903;28;20043;-71
2022/02/11 01:57:16;;;;;;;0.00;0.00;;;6.80;99.90;;;;;;5034006;28;20044;-78
2022/02/11 02:00:23;;;;;;;1.15;0.47;;;6.80;99.90;;;;;;5034345;28;20026;-79
2022/02/11 02:03:15;;;;;;;0.00;0.00;;;6.70;99.90;;;;;;5034137;28;20030;-71
2022/02/11 02:22:03;;;;;;;0.00;0.00;;;6.20;99.90;;;;;;5033712;28;20133;-71
2022/02/11 02:38:33;;;;;;;0.00;0.00;;;5.80;99.90;;;;;;5033255;28;20049;-71
2022/02/11 02:57:42;;;;;;;0.00;0.00;;;5.40;99.90;;;;;;5012787;28;20028;-78
2022/02/11 03:00:36;;;;;;;0.25;0.25;;;5.30;99.90;;;;;;5013251;28;20459;-71
2022/02/11 03:50:01;;;;;;;0.00;0.00;;;4.00;99.90;;;;;;5031663;28;20029;-71
2022/02/11 04:56:42;;;;;;;0.00;0.00;;;3.00;99.90;;;;;;5016048;28;20026;-78
2022/02/11 05:01:52;;;;;;;3.08;0.30;;;2.90;99.90;;;;;;5015434;28;19955;-78
2022/02/11 05:04:17;;;;;;;0.13;0.13;;;2.80;99.90;;;;;;5015409;28;20485;-78
2022/02/11 05:06:43;;;;;;;0.00;0.00;;;2.70;99.90;;;;;;5015526;28;20030;-71
2022/02/11 05:09:09;;;;;;;0.00;0.00;;;2.70;99.90;;;;;;5015041;28;20485;-71
2022/02/11 05:11:34;;;;;;;0.00;0.00;;;2.60;99.90;;;;;;5015009;28;20065;-71
2022/02/11 05:14:00;;;;;;;0.00;0.00;;;2.60;99.90;;;;;;5013885;28;20030;-78
2022/02/11 05:16:26;;;;;;;0.00;0.00;;;2.60;99.90;;;;;;5046860;28;20591;-78
2022/02/11 05:18:51;;;;;;;0.00;0.00;;;2.50;99.90;;;;;;5015114;28;20072;-71
2022/02/11 05:21:17;;;;;;;0.05;0.05;;;2.50;99.90;;;;;;5014662;28;20041;-71
2022/02/11 05:23:43;;;;;;;0.00;0.00;;;2.50;99.90;;;;;;5015812;28;20022;-71
2022/02/11 05:26:08;;;;;;;0.00;0.00;;;2.50;99.90;;;;;;5027087;28;20048;-78
2022/02/11 05:28:34;;;;;;;3.70;0.30;;;2.50;99.90;;;;;;5015396;28;20026;-71
2022/02/11 05:31:00;;;;;;;0.43;0.32;;;2.60;99.90;;;;;;5015009;28;20053;-77
2022/02/11 05:33:27;;;;;;;0.00;0.00;;;2.60;99.90;;;;;;5014050;28;20103;-78
2022/02/11 05:35:52;;;;;;;0.10;0.10;;;2.60;99.90;;;;;;5014757;28;20071;-71
2022/02/11 05:38:18;;;;;;;0.00;0.00;;;2.70;99.90;;;;;;5033591;28;20018;-79
2022/02/11 05:40:45;;;;;;;0.00;0.00;;;2.60;99.90;;;;;;5033763;28;20049;-77
2022/02/11 05:43:11;;;;;;;0.05;0.05;;;2.60;99.90;;;;;;5033151;28;20049;-78
2022/02/11 05:45:37;;;;;;;0.00;0.00;;;2.60;99.90;;;;;;5034613;28;20017;-71
2022/02/11 05:48:05;;;;;;;0.08;0.08;;;2.50;99.90;;;;;;5034185;28;20028;-71
2022/02/11 05:50:31;;;;;;;0.28;0.28;;;2.50;99.90;;;;;;5034315;28;20018;-71
2022/02/11 05:52:56;;;;;;;0.00;0.00;;;2.40;99.90;;;;;;5033923;28;20022;-77
2022/02/11 05:55:22;;;;;;;0.05;0.05;;;2.40;99.90;;;;;;5033935;28;20452;-78
2022/02/11 05:57:48;;;;;;;0.00;0.00;;;2.30;99.90;;;;;;5031936;28;20108;-79
2022/02/11 06:00:14;;;;;;;0.00;0.00;;;2.30;99.90;;;;;;5033829;28;20024;-71
2022/02/11 06:02:40;;;;;;;0.10;0.10;;;2.20;99.90;;;;;;5034193;28;20052;-79
2022/02/11 06:05:06;;;;;;;0.00;0.00;;;2.20;99.90;;;;;;5034185;28;20025;-78
2022/02/11 06:07:31;;;;;;;0.08;0.08;;;2.20;99.90;;;;;;5033569;28;20550;-78
2022/02/11 06:09:58;;;;;;;8.40;1.60;;;2.20;99.90;;;;;;5033584;28;20025;-71
2022/02/11 06:12:24;;;;;;;1.20;0.63;;;2.20;99.90;;;;;;5032822;28;20025;-78
2022/02/11 06:14:50;;;;;;;0.15;0.15;;;2.20;99.90;;;;;;5033931;28;20037;-77
2022/02/11 06:17:16;;;;;;;0.10;0.10;;;2.30;99.90;;;;;;5033630;28;20082;-78
2022/02/11 06:19:45;;;;;;;0.00;0.00;;;2.30;99.90;;;;;;5044971;28;20030;-77
2022/02/11 06:22:11;;;;;;;0.43;0.15;;;2.30;99.90;;;;;;5034878;28;20167;-71
2022/02/11 06:24:36;;;;;;;0.95;0.80;;;2.30;99.90;;;;;;5033362;28;20061;-71
2022/02/11 06:27:02;;;;;;;0.20;0.20;;;2.20;99.90;;;;;;5033677;28;20025;-78
2022/02/11 06:29:28;;;;;;;0.00;0.00;;;2.20;99.90;;;;;;5033810;28;20044;-71
2022/02/11 06:31:53;;;;;;;0.63;0.17;;;2.20;99.90;;;;;;5032125;28;20059;-78
2022/02/11 06:34:19;;;;;;;0.10;0.10;;;2.20;99.90;;;;;;5032547;28;20080;-78
2022/02/11 06:36:45;;;;;;;0.00;0.00;;;2.20;99.90;;;;;;5031573;28;20477;-71
2022/02/11 06:39:11;;;;;;;0.60;0.60;;;2.20;99.90;;;;;;5031885;28;20025;-71
2022/02/11 06:41:37;;;;;;;0.00;0.00;;;2.20;99.90;;;;;;5033289;28;20156;-71
2022/02/11 06:44:03;;;;;;;0.20;0.20;;;2.20;99.90;;;;;;5032867;28;20018;-78
2022/02/11 06:46:28;;;;;;;0.08;0.08;;;2.10;99.90;;;;;;5032620;28;20025;-72
2022/02/11 06:48:54;;;;;;;0.00;0.00;;;2.10;99.90;;;;;;5032750;28;20025;-78
2022/02/11 06:51:19;;;;;;;0.32;0.32;;;2.10;99.90;;;;;;5033166;28;20026;-71
2022/02/11 06:53:45;;;;;;;0.15;0.15;;;2.10;99.90;;;;;;5032555;28;20033;-78
2022/02/11 06:56:11;;;;;;;0.10;0.10;;;2.10;99.90;;;;;;5032982;28;20116;-79
2022/02/11 06:58:37;;;;;;;0.00;0.00;;;2.10;99.90;;;;;;5032593;28;20079;-71
2022/02/11 07:01:03;;;;;;;0.10;0.10;;;2.10;99.90;;;;;;5032514;28;20098;-71
2022/02/11 07:03:28;;;;;;;0.00;0.00;;;2.10;99.90;;;;;;5032884;28;20052;-71
2022/02/11 07:05:56;;;;;;;0.00;0.00;;;2.10;99.90;;;;;;5031820;28;20144;-77
2022/02/11 07:08:24;;;;;;;0.00;0.00;;;2.10;99.90;;;;;;5030996;28;20021;-72
2022/02/11 07:10:49;;;;;;;0.10;0.10;;;2.00;99.90;;;;;;5032567;28;20068;-78
2022/02/11 07:13:15;;;;;;;0.43;0.43;;;2.00;99.90;;;;;;5034362;28;20029;-77
2022/02/11 07:15:42;;;;;;;2.80;1.15;;;2.00;99.90;;;;;;5029983;28;20100;-75
2022/02/11 07:18:08;;;;;;;0.00;0.00;;;2.00;99.90;;;;;;5030368;28;20030;-78
2022/02/11 07:20:34;;;;;;;1.92;0.80;;;2.00;99.90;;;;;;5031444;28;20021;-71
2022/02/11 07:22:59;;;;;;;0.00;0.00;;;2.00;99.90;;;;;;5031305;28;20064;-78
2022/02/11 07:25:25;;;;;;;1.23;0.63;;;1.90;99.90;;;;;;5030674;28;20108;-78
2022/02/11 07:27:51;;;;;;;0.10;0.10;;;1.90;99.90;;;;;;5029979;28;20030;-78
2022/02/11 07:30:18;;;;;;;9.02;1.30;;;1.90;99.90;;;;;;5032287;28;20032;-78
2022/02/11 07:32:43;;;;;;;0.00;0.00;;;1.90;99.90;;;;;;5032243;28;20033;-77
2022/02/11 07:35:09;;;;;;;3.08;1.27;;;1.90;99.90;;;;;;5030630;28;20029;-77
2022/02/11 07:37:35;;;;;;;0.00;0.00;;;1.90;99.90;;;;;;5032090;28;20524;-78
2022/02/11 07:40:02;;;;;;;0.00;0.00;;;1.90;99.90;;;;;;5027197;28;20034;-71
2022/02/11 07:42:29;;;;;;;0.00;0.00;;;2.00;99.90;;;;;;5031962;28;20443;-71
2022/02/11 07:44:57;;;;;;;0.35;0.32;;;2.00;99.90;;;;;;5032284;28;20028;-77
2022/02/11 07:47:24;;;;;;;0.03;0.03;;;2.00;99.90;;;;;;5031827;28;20025;-71
2022/02/11 07:49:49;;;;;;;0.30;0.25;;;2.10;99.90;;;;;;5031880;28;20025;-78
2022/02/11 07:52:15;;;;;;;0.00;0.00;;;2.20;99.90;;;;;;5032009;28;20044;-71
2022/02/11 07:54:42;;;;;;;0.17;0.17;;;2.20;99.90;;;;;;5030939;28;20036;-70
2022/02/11 07:57:08;;;;;;;0.00;0.00;;;2.20;99.90;;;;;;5026827;28;20023;-77
2022/02/11 07:59:34;;;;;;;0.00;0.00;;;2.20;99.90;;;;;;5035943;28;20075;-71
2022/02/11 08:01:59;;;;;;;0.00;0.00;;;2.30;99.90;;;;;;5034249;28;20119;-78
2022/02/11 08:04:25;;;;;;;0.00;0.00;;;2.30;99.90;;;;;;5034287;28;20592;-78
2022/02/11 08:06:51;;;;;;;0.00;0.00;;;2.40;99.90;;;;;;5035042;28;20118;-77
2022/02/11 08:09:16;;;;;;;0.20;0.20;;;2.50;99.90;;;;;;5025478;28;20014;-77
2022/02/11 08:11:42;;;;;;;0.50;0.50;;;2.50;99.90;;;;;;5022643;28;20108;-71
2022/02/11 08:14:08;;;;;;;0.60;0.60;;;2.70;99.90;;;;;;5033852;28;20022;-78
2022/02/11 08:16:34;;;;;;;0.00;0.00;;;2.70;99.90;;;;;;5029599;28;20026;-78
2022/02/11 08:18:59;;;;;;;1.85;0.75;;;2.80;99.90;;;;;;5035055;28;20476;-78
2022/02/11 08:21:25;;;;;;;0.00;0.00;;;3.00;99.90;;;;;;5016207;28;20084;-71
2022/02/11 08:23:52;;;;;;;2.67;0.98;;;3.10;99.90;;;;;;5025715;28;20032;-78
2022/02/11 08:26:17;;;;;;;0.10;0.10;;;3.30;99.90;;;;;;5034208;28;20033;-78
2022/02/11 08:28:43;;;;;;;0.00;0.00;;;3.60;99.90;;;;;;5026534;28;20382;-77
2022/02/11 08:31:09;;;;;;;0.05;0.05;;;4.10;99.90;;;;;;5022943;28;20061;-79
2022/02/11 08:33:35;;;;;;;0.28;0.25;;;4.50;99.90;;;;;;5035192;28;20488;-78
2022/02/11 08:36:01;;;;;;;0.30;0.30;;;4.80;99.90;;;;;;5034814;28;20080;-72
2022/02/11 08:38:27;;;;;;;0.00;0.00;;;4.90;99.90;;;;;;5033929;28;20038;-78
2022/02/11 08:40:54;;;;;;;0.00;0.00;;;5.00;99.90;;;;;;5033497;28;20058;-78
2022/02/11 08:43:21;;;;;;;0.25;0.25;;;4.70;99.90;;;;;;5034910;28;20029;-78
2022/02/11 08:45:48;;;;;;;1.55;0.52;;;4.50;99.90;;;;;;5026852;28;20014;-79
2022/02/11 08:48:15;;;;;;;0.00;0.00;;;4.40;99.90;;;;;;5026809;28;20032;-79
2022/02/11 08:50:42;;;;;;;0.00;0.00;;;4.30;99.90;;;;;;5034420;28;20025;-79
2022/02/11 08:53:09;;;;;;;0.20;0.20;;;4.20;99.90;;;;;;5033378;28;20029;-79
2022/02/11 08:55:36;;;;;;;0.75;0.75;;;4.30;99.90;;;;;;5033185;28;20025;-79
2022/02/11 08:58:04;;;;;;;0.00;0.00;;;4.50;99.90;;;;;;5034349;28;20025;-79
2022/02/11 09:00:30;;;;;;;0.00;0.00;;;4.60;99.90;;;;;;5046432;28;20069;-73
2022/02/11 09:02:56;;;;;;;0.10;0.10;;;4.70;99.90;;;;;;5053928;28;20462;-77
2022/02/11 09:05:24;;;;;;;0.32;0.30;;;4.90;99.90;;;;;;5033293;28;20093;-78
2022/02/11 09:07:58;;;;;;;0.15;0.15;;;5.00;99.90;;;;;;5033170;28;20026;-78
2022/02/11 09:10:28;;;;;;;0.00;0.00;;;5.00;99.90;;;;;;5030129;28;20396;-71
2022/02/11 09:12:58;;;;;;;0.00;0.00;;;5.10;99.90;;;;;;5033277;28;20076;-78
2022/02/11 09:15:26;;;;;;;0.00;0.00;;;5.20;99.90;;;;;;5032010;28;20028;-80
2022/02/11 09:17:52;;;;;;;0.00;0.00;;;5.20;99.90;;;;;;5033417;28;20443;-71
2022/02/11 09:20:18;;;;;;;0.88;0.85;;;5.30;99.90;;;;;;5021341;28;20489;-78
2022/02/11 09:22:44;;;;;;;0.00;0.00;;;5.30;99.90;;;;;;5020958;28;20040;-78
2022/02/11 09:25:11;;;;;;;0.00;0.00;;;5.50;99.90;;;;;;5033839;28;20033;-77
2022/02/11 09:27:43;;;;;;;0.10;0.10;;;5.50;99.90;;;;;;5033915;28;20021;-71
2022/02/11 09:30:20;;;;;;;0.00;0.00;;;5.70;99.90;;;;;;5033948;28;20029;-71
2022/02/11 09:32:48;;;;;;;0.00;0.00;;;5.90;99.90;;;;;;5033670;28;20127;-78
2022/02/11 09:35:15;;;;;;;0.00;0.00;;;6.00;99.90;;;;;;5033672;28;20104;-77
2022/02/11 09:37:41;;;;;;;0.43;0.43;;;6.20;99.90;;;;;;5033653;28;20026;-78
2022/02/11 09:40:10;;;;;;;0.75;0.40;;;6.30;99.90;;;;;;5032897;28;20046;-78
2022/02/11 09:42:38;;;;;;;0.10;0.10;;;6.40;99.90;;;;;;5031517;28;20408;-78
2022/02/11 09:45:06;;;;;;;0.25;0.25;;;6.70;99.90;;;;;;5033099;28;20435;-79
2022/02/11 09:47:33;;;;;;;0.00;0.00;;;6.80;99.90;;;;;;5020025;28;20596;-78
2022/02/11 09:49:59;;;;;;;0.00;0.00;;;6.80;99.90;;;;;;5031576;28;20014;-78
2022/02/11 09:52:24;;;;;;;0.00;0.00;;;7.20;99.90;;;;;;5032767;28;20033;-71
2022/02/11 09:55:31;;;;;;;0.10;0.10;;;7.60;99.90;;;;;;5032598;28;20022;-72
2022/02/11 09:57:41;;;;;;;0.00;0.00;;;7.70;99.90;;;;;;5037152;28;20178;-71
2022/02/11 10:00:08;;;;;;;0.00;0.00;;;7.70;99.90;;;;;;5051876;28;20036;-78
2022/02/11 10:02:34;;;;;;;0.10;0.10;;;7.80;99.90;;;;;;5041561;28;20048;-72
2022/02/11 10:05:05;;;;;;;0.20;0.20;;;7.80;99.90;;;;;;5025020;28;20476;-72
2022/02/11 10:07:31;;;;;;;1.55;0.80;;;7.80;99.90;;;;;;5043462;28;20444;-79
2022/02/11 10:09:59;;;;;;;0.00;0.00;;;7.80;99.90;;;;;;5029171;28;20036;-71
2022/02/11 10:12:25;;;;;;;0.20;0.20;;;7.80;99.90;;;;;;5033942;28;20061;-79
2022/02/11 10:14:50;;;;;;;0.08;0.08;;;7.80;99.90;;;;;;5045337;28;20025;-72
2022/02/11 10:17:19;;;;;;;0.25;0.20;;;7.90;99.90;;;;;;5044312;28;20037;-78
2022/02/11 10:19:47;;;;;;;0.00;0.00;;;8.00;99.90;;;;;;5031439;28;20037;-71
2022/02/11 10:22:17;;;;;;;0.10;0.10;;;8.00;99.90;;;;;;5040500;28;20036;-76
2022/02/11 10:24:44;;;;;;;0.00;0.00;;;7.90;99.90;;;;;;5032607;28;20503;-78
2022/02/11 10:27:22;;;;;;;0.00;0.00;;;8.00;99.90;;;;;;5038074;28;20025;-78
2022/02/11 10:29:50;;;;;;;0.00;0.00;;;8.10;99.90;;;;;;5051104;28;20280;-71
2022/02/11 10:32:16;;;;;;;0.00;0.00;;;8.30;99.90;;;;;;5033882;28;20439;-77
2022/02/11 10:34:50;;;;;;;0.03;0.03;;;8.40;99.90;;;;;;5034095;28;20037;-71
2022/02/11 10:37:15;;;;;;;0.00;0.00;;;8.50;99.90;;;;;;5039048;28;20033;-80
2022/02/11 10:39:41;;;;;;;0.13;0.13;;;8.70;99.90;;;;;;5043279;28;20032;-77
2022/02/11 10:42:11;;;;;;;0.00;0.00;;;8.90;99.90;;;;;;5052346;28;20404;-71
2022/02/11 10:44:42;;;;;;;0.00;0.00;;;8.90;99.90;;;;;;5044680;28;20021;-71
2022/02/11 10:47:10;;;;;;;0.15;0.13;;;8.90;99.90;;;;;;5034255;28;20451;-72
2022/02/11 10:49:40;;;;;;;1.45;0.30;;;8.90;99.90;;;;;;5045420;28;20029;-71
2022/02/11 10:52:17;;;;;;;0.20;0.20;;;8.90;99.90;;;;;;5032888;28;20036;-78
2022/02/11 10:54:50;;;;;;;0.15;0.15;;;9.00;99.90;;;;;;5031312;28;20029;-79
2022/02/11 10:57:18;;;;;;;0.03;0.03;;;9.20;99.90;;;;;;5036487;28;20033;-71
2022/02/11 10:59:45;;;;;;;0.45;0.22;;;9.20;99.90;;;;;;5042308;28;20400;-78
2022/02/11 11:02:13;;;;;;;0.00;0.00;;;9.30;99.90;;;;;;5031620;28;20029;-72
2022/02/11 11:04:39;;;;;;;3.53;0.35;;;9.30;99.90;;;;;;5047164;28;20021;-71
2022/02/11 11:07:07;;;;;;;0.00;0.00;;;9.40;99.90;;;;;;5041809;28;20370;-71
2022/02/11 11:09:37;;;;;;;5.97;1.60;;;9.40;99.90;;;;;;5036806;28;20037;-71
2022/02/11 11:12:04;;;;;;;0.20;0.20;;;9.50;99.90;;;;;;5031071;28;20060;-71
2022/02/11 11:14:30;;;;;;;0.38;0.38;;;9.60;99.90;;;;;;5031110;28;20029;-71
2022/02/11 11:17:01;;;;;;;0.00;0.00;;;9.70;99.90;;;;;;5030754;28;20078;-71
2022/02/11 11:19:34;;;;;;;0.00;0.00;;;9.70;99.90;;;;;;5024293;28;20164;-78
2022/02/11 11:22:11;;;;;;;0.00;0.00;;;9.60;99.90;;;;;;5014235;28;20025;-71
2022/02/11 11:24:53;;;;;;;0.30;0.30;;;9.70;99.90;;;;;;5032305;28;20108;-71
2022/02/11 11:27:57;;;;;;;0.10;0.10;;;9.80;99.90;;;;;;5030483;28;20402;-73
2022/02/11 11:30:29;;;;;;;0.00;0.00;;;9.80;99.90;;;;;;5031018;28;20481;-72
2022/02/11 11:33:07;;;;;;;0.47;0.47;;;9.90;99.90;;;;;;5031517;28;20024;-71
2022/02/11 11:35:43;;;;;;;0.00;0.00;;;10.10;99.90;;;;;;5048558;28;20033;-71
2022/02/11 11:38:25;;;;;;;34.05;2.38;;;10.10;99.90;;;;;;5043497;28;20024;-71
2022/02/11 11:41:19;;;;;;;0.00;0.00;;;10.10;99.90;;;;;;5032377;28;20079;-72
2022/02/11 11:43:46;;;;;;;0.00;0.00;;;10.10;99.90;;;;;;5030167;28;20524;-71
2022/02/11 11:46:17;;;;;;;0.00;0.00;;;10.10;99.90;;;;;;5036939;28;20248;-72
2022/02/11 11:49:01;;;;;;;0.00;0.00;;;10.30;99.90;;;;;;5029915;28;20021;-71
2022/02/11 11:51:40;;;;;;;0.10;0.10;;;10.50;99.90;;;;;;5021984;28;20037;-71
2022/02/11 11:54:21;;;;;;;0.63;0.20;;;10.60;99.90;;;;;;5028777;28;20025;-78
2022/02/11 11:57:07;;;;;;;0.10;0.10;;;10.60;99.90;;;;;;5030550;28;20040;-78
2022/02/11 11:59:47;;;;;;;0.00;0.00;;;10.70;99.90;;;;;;5026813;28;20163;-72
2022/02/11 12:02:20;;;;;;;0.03;0.03;;;10.70;99.90;;;;;;5034138;28;20127;-73
2022/02/11 12:04:49;;;;;;;0.00;0.00;;;10.80;99.90;;;;;;5028469;28;20029;-71
2022/02/11 12:07:20;;;;;;;0.00;0.00;;;10.90;99.90;;;;;;5029725;28;20029;-73
2022/02/11 12:09:49;;;;;;;0.32;0.32;;;10.80;99.90;;;;;;5029266;28;20029;-77
2022/02/11 12:12:18;;;;;;;0.13;0.13;;;11.00;99.90;;;;;;5032329;28;20138;-72
2022/02/11 12:14:44;;;;;;;0.68;0.47;;;11.00;99.90;;;;;;5028736;28;20033;-71
2022/02/11 12:17:15;;;;;;;0.93;0.40;;;11.00;99.90;;;;;;5041550;28;20471;-78
2022/02/11 12:19:44;;;;;;;0.00;0.00;;;11.00;99.90;;;;;;5035759;28;20047;-71
2022/02/11 12:22:10;;;;;;;0.00;0.00;;;11.10;99.90;;;;;;5031502;28;20030;-78
2022/02/11 12:27:24;;;;;;;0.10;0.10;;;11.30;99.90;;;;;;5032063;28;20039;-71
2022/02/11 12:29:55;;;;;;;1.15;0.85;;;11.30;99.90;;;;;;5026662;28;20034;-71
2022/02/11 12:32:23;;;;;;;1.17;0.03;;;11.40;99.90;;;;;;5028495;28;20103;-71
2022/02/11 12:34:51;;;;;;;0.00;0.00;;;11.40;99.90;;;;;;5033467;28;20060;-71
2022/02/11 12:37:18;;;;;;;0.00;0.00;;;11.50;99.90;;;;;;5029898;28;20037;-78
2022/02/11 12:39:45;;;;;;;0.43;0.43;;;11.50;99.90;;;;;;5032444;28;20020;-71
2022/02/11 12:42:16;;;;;;;0.00;0.00;;;11.50;99.90;;;;;;5029187;28;20555;-72
2022/02/11 12:44:42;;;;;;;0.00;0.00;;;11.60;99.90;;;;;;5034832;28;20079;-78
2022/02/11 12:47:08;;;;;;;16.65;2.13;;;11.70;99.90;;;;;;5032718;28;20444;-78
2022/02/11 12:49:43;;;;;;;0.00;0.00;;;11.70;99.90;;;;;;5031431;28;20044;-78
2022/02/11 12:52:15;;;;;;;0.55;0.55;;;11.80;99.90;;;;;;5035702;28;20079;-70
2022/02/11 12:54:56;;;;;;;0.00;0.00;;;11.80;99.90;;;;;;5036985;28;20430;-71
2022/02/11 12:57:21;;;;;;;0.00;0.00;;;12.00;99.90;;;;;;5031719;28;20051;-71
2022/02/11 12:59:52;;;;;;;0.10;0.10;;;12.00;99.90;;;;;;5026430;28;20570;-78
2022/02/11 13:02:25;;;;;;;0.55;0.55;;;12.00;99.90;;;;;;5036792;28;20029;-78
2022/02/11 13:05:21;;;;;;;0.15;0.05;;;12.00;99.90;;;;;;5033017;28;20025;-71
2022/02/11 13:07:49;;;;;;;0.10;0.10;;;12.00;99.90;;;;;;5023864;28;20044;-78
2022/02/11 13:10:29;;;;;;;0.00;0.00;;;12.20;99.90;;;;;;5042507;28;20021;-72
2022/02/11 13:12:57;;;;;;;0.00;0.00;;;12.30;99.90;;;;;;5025556;28;20022;-71
2022/02/11 13:15:32;;;;;;;0.05;0.05;;;12.30;99.90;;;;;;5033322;28;20437;-71
2022/02/11 13:18:12;;;;;;;0.00;0.00;;;12.40;99.90;;;;;;5033506;28;20544;-78
2022/02/11 13:20:43;;;;;;;1.00;0.55;;;12.50;99.90;;;;;;5039616;28;20445;-71
2022/02/11 13:23:17;;;;;;;0.00;0.00;;;12.50;99.90;;;;;;5039426;28;20040;-78
2022/02/11 13:25:44;;;;;;;0.00;0.00;;;12.50;99.90;;;;;;5035272;28;20523;-72
2022/02/11 13:28:14;;;;;;;0.03;0.03;;;12.50;99.90;;;;;;5030176;28;20031;-71
2022/02/11 13:30:45;;;;;;;0.00;0.00;;;12.40;99.90;;;;;;5033606;28;20017;-72
2022/02/11 13:33:28;;;;;;;0.05;0.03;;;12.20;99.90;;;;;;5035791;28;20481;-71
2022/02/11 13:35:55;;;;;;;;;;;12.20;99.90;;;;;;5022732;28;20045;-71
2022/02/11 13:38:29;;;;;;;0.32;0.32;;;12.30;99.90;;;;;;5032773;28;20360;-71
2022/02/11 13:40:56;;;;;;;0.00;0.00;;;12.20;99.90;;;;;;5050222;28;20127;-71
2022/02/11 13:43:22;;;;;;;0.00;0.00;;;12.30;99.90;;;;;;5052953;28;20467;-71
2022/02/11 13:45:57;;;;;;;0.00;0.00;;;12.30;99.90;;;;;;5046081;28;20064;-71
2022/02/11 13:48:31;;;;;;;0.00;0.00;;;12.20;99.90;;;;;;5036906;28;20039;-71
2022/02/11 13:51:11;;;;;;;0.00;0.00;;;12.30;99.90;;;;;;5039511;28;20029;-71
2022/02/11 13:53:40;;;;;;;0.00;0.00;;;12.40;99.90;;;;;;5027579;28;20120;-71
2022/02/11 13:56:12;;;;;;;0.00;0.00;;;12.30;99.90;;;;;;5032215;28;20025;-71
2022/02/11 13:58:40;;;;;;;0.00;0.00;;;12.30;99.90;;;;;;5033986;28;20467;-78
2022/02/11 14:01:27;;;;;;;2.28;0.90;;;12.30;99.90;;;;;;5032054;28;20116;-72
2022/02/11 14:03:58;;;;;;;0.08;0.08;;;12.50;99.90;;;;;;5033179;28;20443;-71
2022/02/11 14:06:25;;;;;;;0.55;0.52;;;12.60;99.90;;;;;;5040669;28;20050;-78
2022/02/11 14:08:51;;;;;;;0.57;0.40;;;12.70;99.90;;;;;;5063332;28;20026;-71
2022/02/11 14:11:20;;;;;;;0.17;0.17;;;12.90;99.90;;;;;;5031410;28;20373;-78
2022/02/11 14:13:49;;;;;;;1.55;0.70;;;13.00;99.90;;;;;;5030910;28;20030;-72
2022/02/11 14:16:18;;;;;;;0.00;0.00;;;12.80;99.90;;;;;;5039347;28;20026;-78
2022/02/11 14:18:44;;;;;;;0.00;0.00;;;12.80;99.90;;;;;;5040817;28;20119;-78
2022/02/11 14:21:16;;;;;;;0.10;0.10;;;12.70;99.70;;;;;;5032105;28;20033;-71
2022/02/11 14:23:42;;;;;;;0.10;0.00;;;12.40;99.90;;;;;;5035614;28;20033;-77
2022/02/11 14:26:09;;;;;;;0.00;0.00;;;12.70;99.90;;;;;;5031489;28;20101;-71
2022/02/11 14:28:35;;;;;;;0.00;0.00;;;12.70;99.50;;;;;;5032118;28;20034;-78
2022/02/11 14:31:04;;;;;;;0.00;0.00;;;12.90;99.90;;;;;;5032641;28;20404;-71
2022/02/11 14:33:29;;;;;;;0.08;0.03;;;12.90;99.50;;;;;;5032765;28;20163;-78
2022/02/11 14:35:55;;;;;;;0.22;0.22;;;12.60;98.60;;;;;;5033337;28;20559;-72
2022/02/11 14:38:21;;;;;;;0.00;0.00;;;12.70;99.90;;;;;;5031806;28;20033;-71
2022/02/11 14:43:31;;;;;;;0.00;0.00;;;12.60;99.40;;;;;;5034534;28;20032;-71
2022/02/11 14:45:57;;;;;;;0.00;0.00;;;12.90;98.80;;;;;;5050042;28;20025;-78
2022/02/11 14:48:23;;;;;;;0.75;0.20;;;12.60;99.30;;;;;;5034039;28;20400;-73
2022/02/11 14:50:49;;;;;;;0.00;0.00;;;12.60;99.90;;;;;;5036114;28;20026;-78
2022/02/11 14:53:14;;;;;;;0.10;0.10;;;12.40;98.10;;;;;;5032640;28;20037;-78
2022/02/11 14:55:40;;;;;;;0.00;0.00;;;12.70;98.60;;;;;;5046471;28;20120;-72
2022/02/11 14:58:05;;;;;;;0.15;0.13;;;12.80;99.50;;;;;;5044048;28;20071;-78
2022/02/11 15:00:31;;;;;;;0.25;0.25;;;12.80;99.00;;;;;;5038919;28;20018;-71
2022/02/11 15:02:57;;;;;;;1.08;0.75;;;13.00;98.10;;;;;;5027915;28;20080;-71
2022/02/11 15:05:23;;;;;;;0.20;0.20;;;13.30;99.20;;;;;;5030534;28;20033;-71
2022/02/11 15:07:49;;;;;;;0.08;0.00;;;13.60;98.90;;;;;;5025395;28;20044;-71
2022/02/11 15:10:15;;;;;;;0.05;0.05;;;13.80;97.20;;;;;;5035359;28;20085;-77
2022/02/11 15:12:41;;;;;;;0.65;0.52;;;13.80;98.40;;;;;;5048307;28;20053;-78
2022/02/11 15:15:08;;;;;;;0.00;0.00;;;13.70;97.20;;;;;;5047825;28;20032;-72
2022/02/11 15:17:34;;;;;;;0.30;0.30;;;13.40;97.00;;;;;;5051228;28;20021;-71
2022/02/11 15:19:59;;;;;;;0.45;0.45;;;13.30;98.30;;;;;;5029934;28;20038;-71
2022/02/11 15:22:25;;;;;;;0.00;0.00;;;13.30;98.00;;;;;;5038525;28;20052;-72
2022/02/11 15:24:54;;;;;;;0.10;0.10;;;13.30;98.70;;;;;;5030730;28;20040;-72
2022/02/11 15:27:19;;;;;;;0.10;0.10;;;13.00;97.70;;;;;;5046229;28;20035;-72
2022/02/11 15:29:45;;;;;;;0.10;0.10;;;13.10;98.80;;;;;;5030923;28;20134;-71
2022/02/11 15:32:11;;;;;;;0.00;0.00;;;13.30;99.30;;;;;;5032920;28;20047;-79
2022/02/11 15:34:38;;;;;;;0.30;0.28;;;13.30;98.50;;;;;;5031733;28;20045;-71
2022/02/11 15:37:05;;;;;;;0.75;0.45;;;13.30;97.50;;;;;;5031842;28;20341;-78
2022/02/11 15:39:31;;;;;;;0.00;0.00;;;13.40;97.80;;;;;;5045491;28;20032;-78
2022/02/11 15:41:56;;;;;;;0.00;0.00;;;13.60;97.60;;;;;;5050259;28;20037;-71
2022/02/11 15:44:22;;;;;;;0.63;0.20;;;13.80;96.90;;;;;;5031809;28;20026;-71
2022/02/11 15:46:47;;;;;;;7.45;0.13;;;14.20;96.50;;;;;;5040761;28;20083;-71
2022/02/11 15:49:13;;;;;;;2.03;1.05;;;14.30;97.20;;;;;;5026402;28;20068;-78
2022/02/11 15:51:39;;;;;;;0.30;0.28;;;14.40;96.90;;;;;;5040361;28;20026;-79
2022/02/11 15:54:05;;;;;;;0.20;0.20;;;14.20;96.90;;;;;;5049631;28;20028;-78
2022/02/11 15:56:31;;;;;;;0.00;0.00;;;14.00;97.20;;;;;;5029735;28;20025;-71
2022/02/11 15:58:57;;;;;;;0.00;0.00;;;13.50;97.00;;;;;;5025448;28;20033;-78
2022/02/11 16:01:23;;;;;;;0.25;0.10;;;13.50;97.20;;;;;;5039931;28;20044;-71
2022/02/11 16:03:49;;;;;;;0.25;0.25;;;13.40;97.30;;;;;;5033571;28;20401;-71
2022/02/11 16:06:14;;;;;;;0.00;0.00;;;13.40;98.00;;;;;;5037393;28;20083;-71
2022/02/11 16:08:40;;;;;;;0.10;0.10;;;13.30;97.20;;;;;;5031713;28;20155;-71
2022/02/11 16:11:06;;;;;;;1.30;0.57;;;13.40;97.10;;;;;;5038235;28;20039;-70
2022/02/11 16:13:32;;;;;;;0.00;0.00;;;13.40;96.40;;;;;;5042442;28;20034;-71
2022/02/11 16:15:58;;;;;;;0.00;0.00;;;13.40;97.00;;;;;;5031893;28;20032;-77
2022/02/11 16:18:23;;;;;;;0.00;0.00;;;13.30;97.70;;;;;;5036090;28;20392;-78
2022/02/11 16:20:50;;;;;;;0.77;0.10;;;13.40;98.40;;;;;;5042209;28;20539;-78
2022/02/11 16:23:18;;;;;;;0.20;0.20;;;13.40;98.60;;;;;;5051940;28;20033;-71
2022/02/11 16:25:45;;;;;;;0.10;0.10;;;13.40;97.90;;;;;;5033152;28;20033;-72
2022/02/11 16:28:13;;;;;;;0.08;0.08;;;13.70;97.00;;;;;;5037336;28;20033;-78
2022/02/11 16:30:40;;;;;;;0.80;0.25;;;13.90;97.50;;;;;;5045156;28;20013;-78
2022/02/11 16:33:07;;;;;;;5.57;0.30;;;14.50;97.20;;;;;;5031841;28;20056;-71
2022/02/11 16:35:34;;;;;;;1.35;0.43;;;14.80;96.20;;;;;;5034348;28;20053;-79
2022/02/11 16:38:01;;;;;;;0.38;0.35;;;14.80;96.00;;;;;;5045754;28;20029;-71
2022/02/11 16:40:28;;;;;;;0.00;0.00;;;14.50;95.60;;;;;;5052858;28;20083;-71
2022/02/11 16:42:54;;;;;;;0.00;0.00;;;14.10;95.30;;;;;;5053476;28;20075;-78
2022/02/11 16:45:19;;;;;;;0.00;0.00;;;13.50;95.80;;;;;;5044864;28;20112;-78
2022/02/11 16:47:45;;;;;;;0.10;0.00;;;12.90;96.40;;;;;;5041845;28;20491;-71
2022/02/11 16:50:11;;;;;;;0.00;0.00;;;12.20;97.40;;;;;;5035269;28;20029;-77
2022/02/11 16:52:38;;;;;;;0.10;0.10;;;11.30;98.20;;;;;;5035277;28;20033;-78